Time;durP1;ratioP1;P1;durP2;ratioP2;P2;SDS_P1;SDS_P2;PMS_P1;PMS_P2;Temp;Humidity;BMP_temperature;BMP_pressure;BME280_temperature;BME280_humidity;BME280_pressure;Samples;Min_cycle;Max_cycle;Signal;HPM_P1;HPM_P2
2021/05/19 00:04:34;;;;;;;4.20;3.30;;;;;;;;;;10294242;28;20032;-65
2021/05/19 00:09:31;;;;;;;5.73;3.60;;;;;;;;;;10291566;28;20025;-65
2021/05/19 00:14:29;;;;;;;5.63;4.90;;;;;;;;;;10285369;28;20034;-65
2021/05/19 00:19:27;;;;;;;5.22;4.72;;;;;;;;;;10274034;28;20526;-66
2021/05/19 00:24:24;;;;;;;7.43;4.80;;;;;;;;;;10290777;28;20029;-64
2021/05/19 00:29:22;;;;;;;6.33;4.13;;;;;;;;;;10301961;28;20021;-65
2021/05/19 00:34:19;;;;;;;7.63;4.87;;;;;;;;;;10280504;28;20104;-65
2021/05/19 00:39:17;;;;;;;6.43;4.90;;;;;;;;;;10284770;28;20035;-65
2021/05/19 00:44:17;;;;;;;7.70;5.57;;;;;;;;;;10290045;28;20036;-65
2021/05/19 00:49:15;;;;;;;6.75;5.25;;;;;;;;;;10307862;28;20033;-66
2021/05/19 00:54:13;;;;;;;8.55;5.30;;;;;;;;;;10299999;28;20038;-64
2021/05/19 00:59:11;;;;;;;7.87;4.97;;;;;;;;;;10291558;28;20029;-65
2021/05/19 01:04:11;;;;;;;11.02;5.32;;;;;;;;;;10275770;28;20501;-67
2021/05/19 01:09:36;;;;;;;5.28;4.80;;;;;;;;;;10275164;28;20557;-65
2021/05/19 01:14:34;;;;;;;7.93;5.75;;;;;;;;;;10291823;28;20036;-65
2021/05/19 01:19:33;;;;;;;6.23;5.33;;;;;;;;;;10292068;28;20025;-66
2021/05/19 01:24:31;;;;;;;7.80;5.55;;;;;;;;;;10287209;28;20079;-65
2021/05/19 01:29:29;;;;;;;10.55;6.00;;;;;;;;;;10274920;28;20087;-65
2021/05/19 01:34:26;;;;;;;11.43;5.60;;;;;;;;;;10292181;28;20068;-64
2021/05/19 01:39:24;;;;;;;8.73;5.53;;;;;;;;;;10290472;28;20064;-65
2021/05/19 01:44:21;;;;;;;8.33;5.80;;;;;;;;;;10290193;28;20037;-63
2021/05/19 01:49:37;;;;;;;9.93;6.88;;;;;;;;;;10291843;28;20493;-64
2021/05/19 01:54:36;;;;;;;11.13;6.75;;;;;;;;;;10293949;28;20017;-65
2021/05/19 01:59:34;;;;;;;9.13;6.75;;;;;;;;;;10309559;28;20496;-65
2021/05/19 02:04:32;;;;;;;11.55;7.75;;;;;;;;;;10305455;28;20037;-65
2021/05/19 02:09:29;;;;;;;13.77;8.47;;;;;;;;;;10285427;28;20029;-64
2021/05/19 02:14:32;;;;;;;14.77;9.43;;;;;;;;;;10291001;28;20303;-64
2021/05/19 02:19:30;;;;;;;18.95;10.55;;;;;;;;;;10279129;28;20034;-64
2021/05/19 02:24:31;;;;;;;17.55;10.15;;;;;;;;;;10290872;28;20025;-64
2021/05/19 02:29:28;;;;;;;15.23;10.27;;;;;;;;;;10286303;28;20025;-63
2021/05/19 02:34:26;;;;;;;18.40;10.93;;;;;;;;;;10310086;28;20560;-63
2021/05/19 02:39:24;;;;;;;17.58;10.77;;;;;;;;;;10289638;28;20036;-62
2021/05/19 02:44:26;;;;;;;17.27;10.73;;;;;;;;;;10289107;28;20033;-63
2021/05/19 02:49:23;;;;;;;18.77;11.47;;;;;;;;;;10315724;28;20021;-63
2021/05/19 02:54:21;;;;;;;17.97;12.00;;;;;;;;;;10310322;28;20028;-63
2021/05/19 02:59:18;;;;;;;16.40;10.87;;;;;;;;;;10303956;28;20103;-63
2021/05/19 03:04:16;;;;;;;15.43;10.10;;;;;;;;;;10341570;28;20087;-65
2021/05/19 03:09:13;;;;;;;17.60;10.53;;;;;;;;;;10312167;28;20037;-66
2021/05/19 03:14:11;;;;;;;17.30;10.33;;;;;;;;;;10308470;28;20034;-65
2021/05/19 03:19:08;;;;;;;14.27;8.63;;;;;;;;;;10341941;28;20456;-63
2021/05/19 03:24:06;;;;;;;11.10;6.77;;;;;;;;;;10349313;28;20037;-65
2021/05/19 03:29:03;;;;;;;9.07;6.43;;;;;;;;;;10291849;28;20033;-65
2021/05/19 03:34:01;;;;;;;6.70;5.53;;;;;;;;;;10307789;28;20040;-65
2021/05/19 03:38:58;;;;;;;14.80;7.60;;;;;;;;;;10309490;28;20041;-65
2021/05/19 03:43:56;;;;;;;12.20;7.83;;;;;;;;;;10348302;28;20106;-65
2021/05/19 03:48:54;;;;;;;6.70;4.50;;;;;;;;;;10326799;28;20506;-65
2021/05/19 03:53:51;;;;;;;8.45;5.93;;;;;;;;;;10336760;28;20553;-65
2021/05/19 03:58:49;;;;;;;11.43;7.67;;;;;;;;;;10314351;28;20082;-65
2021/05/19 04:03:48;;;;;;;8.77;5.00;;;;;;;;;;10342162;28;20045;-64
2021/05/19 04:08:46;;;;;;;10.35;6.18;;;;;;;;;;10338414;28;20063;-63
2021/05/19 04:13:43;;;;;;;1.30;1.13;;;;;;;;;;10311888;28;20037;-64
2021/05/19 04:18:41;;;;;;;1.40;1.03;;;;;;;;;;10271471;28;20059;-63
2021/05/19 04:23:38;;;;;;;2.37;1.23;;;;;;;;;;10273952;28;20037;-65
2021/05/19 04:28:36;;;;;;;2.63;1.27;;;;;;;;;;10281509;28;20034;-63
2021/05/19 04:33:33;;;;;;;2.13;1.10;;;;;;;;;;10281396;28;20044;-63
2021/05/19 04:38:31;;;;;;;1.70;1.37;;;;;;;;;;10284310;28;20454;-64
2021/05/19 04:43:28;;;;;;;1.10;1.00;;;;;;;;;;10278807;28;20513;-63
2021/05/19 04:48:27;;;;;;;2.10;1.33;;;;;;;;;;10277962;28;20405;-63
2021/05/19 04:53:24;;;;;;;2.10;1.60;;;;;;;;;;10274086;28;20418;-63
2021/05/19 04:58:26;;;;;;;2.27;1.80;;;;;;;;;;10278411;28;20041;-64
2021/05/19 05:03:23;;;;;;;3.42;1.90;;;;;;;;;;10276836;28;20034;-65
2021/05/19 05:08:21;;;;;;;4.23;2.10;;;;;;;;;;10271682;28;20033;-63
2021/05/19 05:13:18;;;;;;;2.80;2.17;;;;;;;;;;10262575;28;20061;-66
2021/05/19 05:18:15;;;;;;;8.20;2.60;;;;;;;;;;10269087;28;20121;-64
2021/05/19 05:23:13;;;;;;;5.53;2.93;;;;;;;;;;10269033;28;20038;-64
2021/05/19 05:28:10;;;;;;;4.27;2.93;;;;;;;;;;10254638;28;20119;-65
2021/05/19 05:33:08;;;;;;;7.10;2.83;;;;;;;;;;10295049;28;20044;-64
2021/05/19 05:38:05;;;;;;;5.17;2.93;;;;;;;;;;10297963;28;20034;-66
2021/05/19 05:43:03;;;;;;;5.33;2.87;;;;;;;;;;10287014;28;20033;-64
2021/05/19 05:48:01;;;;;;;6.00;3.40;;;;;;;;;;10254585;28;20033;-65
2021/05/19 05:52:58;;;;;;;9.63;3.37;;;;;;;;;;10285225;28;20818;-64
2021/05/19 05:57:55;;;;;;;6.83;3.43;;;;;;;;;;10295316;28;20047;-63
2021/05/19 06:02:53;;;;;;;6.77;3.57;;;;;;;;;;10288079;28;20064;-65
2021/05/19 06:07:50;;;;;;;8.77;4.23;;;;;;;;;;10255017;28;20038;-65
2021/05/19 06:12:48;;;;;;;5.53;3.17;;;;;;;;;;10287440;28;20049;-67
2021/05/19 06:17:46;;;;;;;4.47;3.25;;;;;;;;;;10251051;28;20045;-64
2021/05/19 06:22:43;;;;;;;7.23;2.73;;;;;;;;;;10279815;28;20048;-64
2021/05/19 06:27:41;;;;;;;5.57;2.83;;;;;;;;;;10282389;28;20037;-64
2021/05/19 06:32:38;;;;;;;3.27;2.20;;;;;;;;;;10270059;28;20132;-65
2021/05/19 06:37:35;;;;;;;5.17;2.67;;;;;;;;;;10291332;28;20044;-63
2021/05/19 06:42:33;;;;;;;4.47;2.47;;;;;;;;;;10291329;28;20045;-64
2021/05/19 06:47:30;;;;;;;2.87;1.93;;;;;;;;;;10287108;28;20562;-63
2021/05/19 06:52:29;;;;;;;2.83;2.37;;;;;;;;;;10293297;28;21821;-65
2021/05/19 06:57:27;;;;;;;2.75;1.85;;;;;;;;;;10296895;28;20040;-64
2021/05/19 07:02:24;;;;;;;2.60;2.03;;;;;;;;;;10278574;28;20042;-64
2021/05/19 07:07:22;;;;;;;2.33;1.67;;;;;;;;;;10290443;28;20038;-64
2021/05/19 07:12:19;;;;;;;4.30;1.17;;;;;;;;;;10296292;28;20577;-66
2021/05/19 07:17:16;;;;;;;3.07;1.50;;;;;;;;;;10284728;28;20040;-64
2021/05/19 07:22:14;;;;;;;4.23;1.17;;;;;;;;;;10268537;28;20149;-64
2021/05/19 07:27:11;;;;;;;2.00;1.20;;;;;;;;;;10292003;28;20049;-64
2021/05/19 07:32:09;;;;;;;0.97;0.97;;;;;;;;;;10285035;28;20041;-66
2021/05/19 07:37:07;;;;;;;2.15;0.98;;;;;;;;;;10243114;28;20029;-65
2021/05/19 07:42:04;;;;;;;1.13;0.97;;;;;;;;;;10280724;28;20030;-64
2021/05/19 07:47:02;;;;;;;0.87;0.87;;;;;;;;;;10263939;28;20049;-64
2021/05/19 07:51:59;;;;;;;1.30;1.17;;;;;;;;;;10289037;28;20056;-65
2021/05/19 07:57:00;;;;;;;0.73;0.67;;;;;;;;;;10280797;28;20272;-64
2021/05/19 08:06:59;;;;;;;1.73;1.63;;;;;;;;;;10274940;28;20041;-64
2021/05/19 08:11:57;;;;;;;5.72;2.58;;;;;;;;;;10238855;28;20038;-65
2021/05/19 08:16:54;;;;;;;4.20;1.60;;;;;;;;;;10269948;28;21573;-65
2021/05/19 08:21:51;;;;;;;3.97;2.30;;;;;;;;;;10281032;28;20099;-64
2021/05/19 08:26:49;;;;;;;2.63;1.50;;;;;;;;;;10292863;28;20045;-65
2021/05/19 08:31:48;;;;;;;1.08;0.90;;;;;;;;;;10282868;28;20065;-64
2021/05/19 08:36:45;;;;;;;2.40;1.37;;;;;;;;;;10278005;28;20462;-65
2021/05/19 08:41:44;;;;;;;4.23;1.10;;;;;;;;;;10275320;28;20080;-65
2021/05/19 08:46:45;;;;;;;2.45;0.77;;;;;;;;;;10265239;28;20553;-65
2021/05/19 08:51:43;;;;;;;1.55;0.60;;;;;;;;;;10285492;28;20080;-66
2021/05/19 08:56:42;;;;;;;1.77;0.40;;;;;;;;;;10291934;28;20034;-65
2021/05/19 09:01:50;;;;;;;0.20;0.20;;;;;;;;;;10252513;28;20569;-65
2021/05/19 09:06:54;;;;;;;0.63;0.20;;;;;;;;;;10274271;28;20045;-65
2021/05/19 09:12:01;;;;;;;1.67;0.25;;;;;;;;;;10261773;28;20099;-64
2021/05/19 09:17:17;;;;;;;0.22;0.08;;;;;;;;;;10280087;28;20038;-65
2021/05/19 09:22:21;;;;;;;0.93;0.57;;;;;;;;;;10278765;28;20038;-64
2021/05/19 09:27:19;;;;;;;3.20;1.45;;;;;;;;;;10281484;28;20514;-65
2021/05/19 09:32:18;;;;;;;0.93;0.30;;;;;;;;;;10285247;28;20395;-65
2021/05/19 09:37:15;;;;;;;1.70;0.22;;;;;;;;;;10276112;28;20403;-64
2021/05/19 09:42:13;;;;;;;2.77;0.70;;;;;;;;;;10288897;28;20552;-65
2021/05/19 09:47:10;;;;;;;;;;;;;;;;;;10293341;28;20041;-65
2021/05/19 09:52:09;;;;;;;1.30;0.80;;;;;;;;;;10299161;28;20546;-66
2021/05/19 09:57:09;;;;;;;2.65;0.77;;;;;;;;;;10282870;28;20492;-65
2021/05/19 10:02:07;;;;;;;2.50;1.10;;;;;;;;;;10245239;28;20030;-64
2021/05/19 10:07:09;;;;;;;;;;;;;;;;;;10236185;28;20218;-65
2021/05/19 10:12:12;;;;;;;4.30;1.92;;;;;;;;;;10251811;28;19953;-63
2021/05/19 10:17:10;;;;;;;5.57;1.70;;;;;;;;;;10268396;28;20513;-64
2021/05/19 10:22:09;;;;;;;3.20;1.83;;;;;;;;;;10271794;28;20033;-64
2021/05/19 10:27:08;;;;;;;2.53;1.83;;;;;;;;;;10288345;28;20045;-63
2021/05/19 10:32:20;;;;;;;2.15;1.17;;;;;;;;;;10249391;28;20037;-64
2021/05/19 10:37:26;;;;;;;1.58;0.47;;;;;;;;;;10288960;28;20404;-65
2021/05/19 10:42:51;;;;;;;3.42;2.75;;;;;;;;;;10293468;28;20141;-64
2021/05/19 10:47:48;;;;;;;6.78;4.63;;;;;;;;;;10278813;28;20103;-64
2021/05/19 10:58:01;;;;;;;4.65;2.38;;;;;;;;;;10304428;28;20155;-65
2021/05/19 11:08:10;;;;;;;6.35;3.20;;;;;;;;;;10267308;28;20029;-64
2021/05/19 11:13:08;;;;;;;7.07;3.40;;;;;;;;;;10286614;28;20041;-65
2021/05/19 11:18:17;;;;;;;4.00;2.72;;;;;;;;;;10276504;28;20030;-65
2021/05/19 11:23:16;;;;;;;5.22;3.05;;;;;;;;;;10277170;28;20034;-64
2021/05/19 11:28:14;;;;;;;7.55;3.50;;;;;;;;;;10292828;28;20060;-64
2021/05/19 11:33:15;;;;;;;4.90;2.78;;;;;;;;;;10286325;28;20457;-64
2021/05/19 11:38:14;;;;;;;6.32;2.80;;;;;;;;;;10247907;28;20033;-64
2021/05/19 11:43:12;;;;;;;5.88;3.85;;;;;;;;;;10291110;28;20037;-64
2021/05/19 11:48:19;;;;;;;6.30;3.75;;;;;;;;;;10286643;28;20041;-65
2021/05/19 11:53:18;;;;;;;5.13;3.17;;;;;;;;;;10269512;28;20517;-65
2021/05/19 11:58:19;;;;;;;7.68;4.38;;;;;;;;;;10290418;28;20268;-65
2021/05/19 12:03:19;;;;;;;2.72;1.42;;;;;;;;;;10278242;28;20144;-63
2021/05/19 12:08:18;;;;;;;1.75;0.50;;;;;;;;;;10292238;28;20044;-66
2021/05/19 12:13:25;;;;;;;0.30;0.30;;;;;;;;;;10284151;28;20034;-64
2021/05/19 12:18:23;;;;;;;2.17;0.60;;;;;;;;;;10265669;28;20440;-64
2021/05/19 12:23:20;;;;;;;;;;;;;;;;;;10288838;28;20046;-64
2021/05/19 12:28:18;;;;;;;1.65;0.80;;;;;;;;;;10296306;28;20298;-64
2021/05/19 12:33:21;;;;;;;0.68;0.40;;;;;;;;;;10278172;28;20119;-65
2021/05/19 12:38:25;;;;;;;2.95;1.00;;;;;;;;;;10259011;28;20077;-65
2021/05/19 12:43:24;;;;;;;2.08;0.50;;;;;;;;;;10296299;28;20042;-65
2021/05/19 12:48:23;;;;;;;0.40;0.40;;;;;;;;;;10281967;28;20041;-65
2021/05/19 12:53:35;;;;;;;0.38;0.38;;;;;;;;;;10296112;28;20044;-65
2021/05/19 12:58:49;;;;;;;0.40;0.40;;;;;;;;;;10278524;28;20114;-63
2021/05/19 13:03:47;;;;;;;0.50;0.50;;;;;;;;;;10277916;28;20041;-64
2021/05/19 13:09:01;;;;;;;0.73;0.73;;;;;;;;;;10262936;28;20038;-66
2021/05/19 13:13:59;;;;;;;0.25;0.22;;;;;;;;;;10277029;28;20067;-65
2021/05/19 13:19:10;;;;;;;;;;;;;;;;;;10286031;28;20061;-63
2021/05/19 13:24:09;;;;;;;0.13;0.13;;;;;;;;;;10276901;28;19917;-64
2021/05/19 13:29:07;;;;;;;0.10;0.10;;;;;;;;;;10278584;28;20422;-64
2021/05/19 13:39:11;;;;;;;0.30;0.20;;;;;;;;;;10283047;28;20056;-65
2021/05/19 13:44:09;;;;;;;0.37;0.37;;;;;;;;;;10283375;28;20136;-66
2021/05/19 13:54:20;;;;;;;0.57;0.57;;;;;;;;;;10257843;28;20068;-65
2021/05/19 13:59:19;;;;;;;1.88;0.70;;;;;;;;;;10288936;28;20045;-64
2021/05/19 14:04:17;;;;;;;0.55;0.30;;;;;;;;;;10279175;28;20095;-66
2021/05/19 14:09:16;;;;;;;0.57;0.40;;;;;;;;;;10271526;28;20088;-64
2021/05/19 14:29:51;;;;;;;0.32;0.30;;;;;;;;;;10287507;28;20037;-66
2021/05/19 14:34:53;;;;;;;0.88;0.55;;;;;;;;;;10298211;28;20024;-65
2021/05/19 15:00:36;;;;;;;1.55;0.38;;;;;;;;;;10294748;28;20410;-64
2021/05/19 15:05:33;;;;;;;0.13;0.13;;;;;;;;;;10307259;28;20045;-64
2021/05/19 15:10:31;;;;;;;1.30;0.50;;;;;;;;;;10268116;28;20128;-66
2021/05/19 15:15:28;;;;;;;0.60;0.15;;;;;;;;;;10300976;28;20639;-65
2021/05/19 15:20:26;;;;;;;0.63;0.40;;;;;;;;;;10284728;28;20042;-65
2021/05/19 15:25:23;;;;;;;0.98;0.32;;;;;;;;;;10295032;28;20046;-66
2021/05/19 15:30:21;;;;;;;0.07;0.07;;;;;;;;;;10298801;28;20039;-65
2021/05/19 15:35:19;;;;;;;1.33;0.70;;;;;;;;;;10272546;28;20376;-64
2021/05/19 15:40:17;;;;;;;0.60;0.40;;;;;;;;;;10281984;28;20383;-65
2021/05/19 15:45:14;;;;;;;0.30;0.30;;;;;;;;;;10291025;28;20038;-64
2021/05/19 15:50:13;;;;;;;0.40;0.40;;;;;;;;;;10289839;28;20049;-64
2021/05/19 15:55:11;;;;;;;0.52;0.52;;;;;;;;;;10287643;28;20045;-64
2021/05/19 16:00:10;;;;;;;0.67;0.67;;;;;;;;;;10292708;28;20037;-67
2021/05/19 16:05:13;;;;;;;1.15;1.05;;;;;;;;;;10279378;28;20057;-64
2021/05/19 16:10:11;;;;;;;3.35;1.92;;;;;;;;;;10267418;28;20044;-64
2021/05/19 16:15:09;;;;;;;1.73;1.10;;;;;;;;;;10278649;28;20049;-64
2021/05/19 16:20:10;;;;;;;0.10;0.10;;;;;;;;;;10277347;28;20525;-64
2021/05/19 16:25:07;;;;;;;4.72;2.85;;;;;;;;;;10274294;28;20281;-63
2021/05/19 16:30:44;;;;;;;0.77;0.57;;;;;;;;;;10281062;28;20045;-64
2021/05/19 16:35:41;;;;;;;3.97;1.63;;;;;;;;;;10281650;28;20292;-64
2021/05/19 16:40:38;;;;;;;3.23;1.37;;;;;;;;;;10276005;28;20037;-63
2021/05/19 16:45:37;;;;;;;1.97;0.77;;;;;;;;;;10273772;28;20046;-63
2021/05/19 16:50:35;;;;;;;1.55;1.02;;;;;;;;;;10286019;28;20044;-63
2021/05/19 16:55:32;;;;;;;2.60;2.13;;;;;;;;;;10283073;28;20929;-65
2021/05/19 17:00:30;;;;;;;0.80;0.80;;;;;;;;;;10282214;28;20064;-64
2021/05/19 17:05:28;;;;;;;10.15;1.55;;;;;;;;;;10278597;28;20459;-63
2021/05/19 17:10:27;;;;;;;4.38;1.50;;;;;;;;;;10282205;28;20037;-65
2021/05/19 17:15:25;;;;;;;5.63;3.15;;;;;;;;;;10285973;28;20057;-63
2021/05/19 17:20:23;;;;;;;3.15;1.15;;;;;;;;;;10280716;28;21321;-63
2021/05/19 17:25:21;;;;;;;5.70;0.63;;;;;;;;;;10286575;28;20083;-64
2021/05/19 17:30:18;;;;;;;5.63;1.70;;;;;;;;;;10292087;28;20080;-65
2021/05/19 17:35:17;;;;;;;2.13;0.60;;;;;;;;;;10280168;28;20040;-63
2021/05/19 17:40:15;;;;;;;2.95;1.27;;;;;;;;;;10285853;28;20026;-64
2021/05/19 17:45:13;;;;;;;1.70;1.20;;;;;;;;;;10273208;28;20045;-64
2021/05/19 17:50:11;;;;;;;1.95;0.70;;;;;;;;;;10271829;28;20037;-65
2021/05/19 17:55:08;;;;;;;1.00;0.38;;;;;;;;;;10283178;28;20152;-66
2021/05/19 18:00:06;;;;;;;4.05;1.10;;;;;;;;;;10267374;28;20034;-64
2021/05/19 18:05:10;;;;;;;1.88;0.98;;;;;;;;;;10269444;28;20044;-64
2021/05/19 18:10:07;;;;;;;0.40;0.40;;;;;;;;;;10275082;28;20398;-64
2021/05/19 18:15:05;;;;;;;0.47;0.30;;;;;;;;;;10275446;28;20041;-64
2021/05/19 18:20:03;;;;;;;1.23;0.68;;;;;;;;;;10279197;28;20034;-64
2021/05/19 18:25:01;;;;;;;1.15;0.85;;;;;;;;;;10280069;28;20054;-64
2021/05/19 18:30:04;;;;;;;3.63;0.30;;;;;;;;;;10280579;28;20041;-65
2021/05/19 18:40:01;;;;;;;0.93;0.70;;;;;;;;;;10288882;28;20761;-64
2021/05/19 18:44:58;;;;;;;0.43;0.43;;;;;;;;;;10263457;28;20042;-66
2021/05/19 18:49:55;;;;;;;2.60;0.30;;;;;;;;;;10272101;28;20041;-64
2021/05/19 18:54:53;;;;;;;1.87;0.50;;;;;;;;;;10278858;28;20018;-64
2021/05/19 18:59:50;;;;;;;1.13;1.13;;;;;;;;;;10280360;28;20418;-64
2021/05/19 19:04:48;;;;;;;0.60;0.60;;;;;;;;;;10271784;28;20417;-64
2021/05/19 19:09:45;;;;;;;1.15;0.95;;;;;;;;;;10253962;28;20021;-64
2021/05/19 19:14:43;;;;;;;2.23;0.57;;;;;;;;;;10274601;28;20120;-64
2021/05/19 19:19:40;;;;;;;1.67;1.00;;;;;;;;;;10269965;28;20079;-65
2021/05/19 19:24:38;;;;;;;0.17;0.17;;;;;;;;;;10293239;28;20033;-64
2021/05/19 19:29:35;;;;;;;0.50;0.50;;;;;;;;;;10278334;28;20029;-66
2021/05/19 19:34:34;;;;;;;0.60;0.60;;;;;;;;;;10285219;28;20124;-66
2021/05/19 19:39:31;;;;;;;0.45;0.45;;;;;;;;;;10268617;28;20398;-66
2021/05/19 19:44:29;;;;;;;0.40;0.40;;;;;;;;;;10288556;28;20033;-65
2021/05/19 19:49:28;;;;;;;8.60;0.50;;;;;;;;;;10289423;28;20036;-64
2021/05/19 19:54:26;;;;;;;0.20;0.20;;;;;;;;;;10289957;28;20847;-65
2021/05/19 19:59:28;;;;;;;0.33;0.33;;;;;;;;;;10283890;28;20037;-64
2021/05/19 20:04:25;;;;;;;0.32;0.32;;;;;;;;;;10283482;28;20044;-64
2021/05/19 20:09:27;;;;;;;0.87;0.53;;;;;;;;;;10290405;28;20511;-64
2021/05/19 20:14:25;;;;;;;1.13;0.40;;;;;;;;;;10274961;28;20030;-65
2021/05/19 20:19:23;;;;;;;1.00;0.50;;;;;;;;;;10289190;28;20303;-64
2021/05/19 20:24:21;;;;;;;0.38;0.38;;;;;;;;;;10288906;28;20063;-65
2021/05/19 20:29:18;;;;;;;0.97;0.70;;;;;;;;;;10263102;28;20570;-65
2021/05/19 20:34:19;;;;;;;4.07;1.00;;;;;;;;;;10254420;28;20083;-66
2021/05/19 20:39:19;;;;;;;3.55;1.92;;;;;;;;;;10269306;28;20508;-65
2021/05/19 20:44:17;;;;;;;12.82;11.52;;;;;;;;;;10257636;28;21153;-64
2021/05/19 20:49:15;;;;;;;31.75;27.08;;;;;;;;;;10260612;28;20056;-65
2021/05/19 20:54:12;;;;;;;18.23;13.40;;;;;;;;;;10296669;28;20033;-65
2021/05/19 20:59:10;;;;;;;13.13;10.57;;;;;;;;;;10280992;28;20037;-64
2021/05/19 21:04:08;;;;;;;11.90;9.75;;;;;;;;;;10299425;28;20147;-66
2021/05/19 21:09:06;;;;;;;11.98;9.07;;;;;;;;;;10269469;28;20132;-65
2021/05/19 21:14:04;;;;;;;10.00;8.60;;;;;;;;;;10277080;28;20049;-63
2021/05/19 21:19:03;;;;;;;9.60;7.65;;;;;;;;;;10273932;28;20053;-62
2021/05/19 21:24:00;;;;;;;9.05;6.72;;;;;;;;;;10275934;28;20649;-63
2021/05/19 21:28:58;;;;;;;6.70;6.07;;;;;;;;;;10285745;28;20037;-63
2021/05/19 21:33:55;;;;;;;0.90;0.90;;;;;;;;;;10243486;28;20042;-65
2021/05/19 21:38:52;;;;;;;1.63;1.53;;;;;;;;;;10279758;28;20037;-63
2021/05/19 21:43:50;;;;;;;1.33;1.23;;;;;;;;;;10283412;28;20045;-64
2021/05/19 21:48:47;;;;;;;1.07;0.97;;;;;;;;;;10283222;28;20038;-64
2021/05/19 21:53:45;;;;;;;5.50;1.50;;;;;;;;;;10288518;28;20037;-64
2021/05/19 21:58:42;;;;;;;1.50;1.10;;;;;;;;;;10285354;28;20132;-65
2021/05/19 22:03:39;;;;;;;1.80;1.13;;;;;;;;;;10283394;28;20127;-65
2021/05/19 22:08:37;;;;;;;1.80;1.10;;;;;;;;;;10265916;28;20418;-65
2021/05/19 22:13:37;;;;;;;2.72;1.30;;;;;;;;;;10287135;28;20030;-64
2021/05/19 22:18:44;;;;;;;2.58;1.60;;;;;;;;;;10278553;28;20038;-65
2021/05/19 22:28:46;;;;;;;2.08;1.08;;;;;;;;;;10299134;28;21021;-64
2021/05/19 22:33:44;;;;;;;2.55;1.33;;;;;;;;;;10279298;28;20037;-64
2021/05/19 22:38:41;;;;;;;1.45;1.35;;;;;;;;;;10255920;28;20466;-63
2021/05/19 22:43:40;;;;;;;1.23;0.87;;;;;;;;;;10286669;28;20030;-64
2021/05/19 22:48:38;;;;;;;2.97;1.60;;;;;;;;;;10285788;28;20038;-64
2021/05/19 22:53:38;;;;;;;4.00;1.80;;;;;;;;;;10294603;28;20037;-64
2021/05/19 22:58:35;;;;;;;2.78;1.08;;;;;;;;;;10290849;28;20116;-62
2021/05/19 23:03:33;;;;;;;1.20;0.70;;;;;;;;;;10272264;28;20133;-64
2021/05/19 23:08:31;;;;;;;2.58;1.90;;;;;;;;;;10280793;28;20049;-64
2021/05/19 23:13:28;;;;;;;1.87;1.70;;;;;;;;;;10293475;28;20045;-63
2021/05/19 23:18:26;;;;;;;3.50;1.60;;;;;;;;;;10288222;28;20041;-63
2021/05/19 23:23:25;;;;;;;1.60;1.50;;;;;;;;;;10278048;28;20033;-67
2021/05/19 23:28:23;;;;;;;2.78;1.65;;;;;;;;;;10257312;28;20195;-66
2021/05/19 23:33:20;;;;;;;2.80;1.93;;;;;;;;;;10249387;28;20391;-65
2021/05/19 23:38:18;;;;;;;1.83;1.63;;;;;;;;;;10262048;28;20029;-66
2021/05/19 23:43:15;;;;;;;1.97;1.77;;;;;;;;;;10282518;28;20508;-65
2021/05/19 23:48:12;;;;;;;4.77;2.03;;;;;;;;;;10293455;28;20513;-65
2021/05/19 23:53:10;;;;;;;2.70;1.90;;;;;;;;;;10297180;28;20544;-65
2021/05/19 23:58:08;;;;;;;2.20;1.02;;;;;;;;;;10274543;28;20036;-64
